Terminal Aerodrome Forecast
Issued by NWS Billings, MT

Home | Current Version | Previous Version | Graphics & Text | Print | Product List | Glossary Off
Versions: 1 2 3 4 5 6 7 8 9 10 11 12 13 14 15 16 17 18 19 20 21 22 23

000
FTUS45 KBYZ 220520
TAFMLS
TAF
KMLS 220520Z 2206/2306 13008KT P6SM FEW250
     FM221000 VRB06KT P6SM FEW090 BKN180 WS016/19030KT
     FM221500 14007KT P6SM FEW150 BKN200
     FM222100 VRB05KT P6SM FEW090 BKN180=

USA.gov is the U.S. government's official web portal to all federal, state and local government web resources and services.